createdAt,value
2016-11-21T00:00:00.574Z,9.66
2016-11-21T00:01:00.570Z,9.61
2016-11-21T00:02:00.585Z,9.64
2016-11-21T00:03:00.551Z,9.58
2016-11-21T00:04:00.541Z,9.58
2016-11-21T00:05:00.535Z,9.57
2016-11-21T00:06:00.524Z,9.54
2016-11-21T00:07:00.521Z,9.56
2016-11-21T00:08:00.807Z,9.48
2016-11-21T00:09:00.800Z,9.46
2016-11-21T00:10:00.485Z,9.47
2016-11-21T00:11:00.787Z,9.47
2016-11-21T00:12:00.474Z,9.46
2016-11-21T00:13:00.465Z,9.46
2016-11-21T00:14:00.451Z,9.5
2016-11-21T00:15:00.442Z,9.48
2016-11-21T00:16:00.436Z,9.53
2016-11-21T00:17:00.424Z,9.5
2016-11-21T00:18:00.421Z,9.51
2016-11-21T00:19:00.410Z,9.5
2016-11-21T00:20:00.400Z,9.47
2016-11-21T00:21:00.392Z,9.51
2016-11-21T00:22:00.382Z,9.51
2016-11-21T00:23:00.373Z,9.47
2016-11-21T00:24:00.362Z,9.46
2016-11-21T00:25:00.351Z,9.46
2016-11-21T00:26:00.346Z,9.47
2016-11-21T00:27:00.343Z,9.53
2016-11-21T00:28:00.327Z,9.5
2016-11-21T00:29:00.320Z,9.53
2016-11-21T00:30:00.314Z,9.56
2016-11-21T00:31:00.303Z,9.54
2016-11-21T00:32:00.607Z,9.61
2016-11-21T00:33:00.287Z,9.57
2016-11-21T00:34:00.278Z,9.58
2016-11-21T00:35:00.267Z,9.54
2016-11-21T00:36:00.258Z,9.58
2016-11-21T00:37:00.248Z,9.53
2016-11-21T00:38:00.239Z,9.57
2016-11-21T00:39:00.228Z,9.48
2016-11-21T00:40:00.225Z,9.56
2016-11-21T00:41:00.211Z,9.53
2016-11-21T00:42:00.209Z,9.54
2016-11-21T00:43:00.199Z,9.47
2016-11-21T00:44:00.186Z,9.46
2016-11-21T00:45:00.180Z,9.46
2016-11-21T00:46:00.181Z,9.48
2016-11-21T00:47:00.162Z,9.43
2016-11-21T00:48:00.156Z,9.5
2016-11-21T00:49:00.145Z,9.46
2016-11-21T00:50:00.132Z,9.48
2016-11-21T00:51:00.122Z,9.48
2016-11-21T00:52:00.115Z,9.5
2016-11-21T00:53:00.108Z,9.43
2016-11-21T00:54:00.407Z,9.47
2016-11-21T00:55:00.091Z,9.51
2016-11-21T00:56:00.081Z,9.48
2016-11-21T00:57:00.096Z,9.46
2016-11-21T00:58:00.093Z,9.53
2016-11-21T00:59:00.051Z,9.48
2016-11-21T01:00:00.045Z,9.51
2016-11-21T01:01:00.053Z,9.46
2016-11-21T01:02:00.024Z,9.47
2016-11-21T01:03:00.020Z,9.47
2016-11-21T01:04:00.010Z,9.47
2016-11-21T01:04:59.999Z,9.43
2016-11-21T01:05:59.990Z,9.4
2016-11-21T01:06:59.984Z,9.43
2016-11-21T01:07:59.969Z,9.4
2016-11-21T01:08:59.972Z,9.42
2016-11-21T01:09:59.963Z,9.36
2016-11-21T01:10:59.952Z,9.47
2016-11-21T01:11:59.941Z,9.46
2016-11-21T01:12:59.929Z,9.43
2016-11-21T01:13:59.921Z,9.46
2016-11-21T01:14:59.911Z,9.38
2016-11-21T01:15:59.907Z,9.53
2016-11-21T01:16:59.899Z,9.46
2016-11-21T01:17:59.885Z,9.35
2016-11-21T01:18:59.879Z,9.46
2016-11-21T01:19:59.868Z,9.38
2016-11-21T01:20:59.859Z,9.35
2016-11-21T01:21:59.851Z,9.35
2016-11-21T01:23:00.151Z,9.29
2016-11-21T01:23:59.831Z,9.35
2016-11-21T01:24:59.825Z,9.32
2016-11-21T01:25:59.813Z,9.32
2016-11-21T01:26:59.805Z,9.21
2016-11-21T01:27:59.799Z,9.33
2016-11-21T01:28:59.787Z,9.26
2016-11-21T01:29:59.782Z,9.33
2016-11-21T01:30:59.775Z,9.33
2016-11-21T01:31:59.763Z,9.33
2016-11-21T01:32:59.754Z,9.26
2016-11-21T01:33:59.747Z,9.31
2016-11-21T01:34:59.741Z,9.23
2016-11-21T01:35:59.731Z,9.28
2016-11-21T01:36:59.715Z,9.33
2016-11-21T01:37:59.710Z,9.31
2016-11-21T01:38:59.701Z,9.36
2016-11-21T01:39:59.691Z,9.23
2016-11-21T01:40:59.682Z,9.28
2016-11-21T01:41:59.673Z,9.29
2016-11-21T01:42:59.663Z,9.33
2016-11-21T01:43:59.659Z,9.29
2016-11-21T01:44:59.642Z,9.29
2016-11-21T01:45:59.639Z,9.28
2016-11-21T01:46:59.630Z,9.28
2016-11-21T01:47:59.620Z,9.35
2016-11-21T01:48:59.614Z,9.33
2016-11-21T01:49:59.601Z,9.31
2016-11-21T01:50:59.591Z,9.33
2016-11-21T01:51:59.583Z,9.32
2016-11-21T01:52:59.576Z,9.31
2016-11-21T01:53:59.567Z,9.31
2016-11-21T01:54:59.551Z,9.35
2016-11-21T01:55:59.546Z,9.33
2016-11-21T01:56:59.540Z,9.28
2016-11-21T01:57:59.529Z,9.31
2016-11-21T01:58:59.521Z,9.32
2016-11-21T01:59:59.514Z,9.28
2016-11-21T02:00:59.502Z,9.31
2016-11-21T02:01:59.497Z,9.26
2016-11-21T02:02:59.486Z,9.28
2016-11-21T02:03:59.478Z,9.26
2016-11-21T02:04:59.465Z,9.26
2016-11-21T02:05:59.461Z,9.23
2016-11-21T02:06:59.452Z,9.18
2016-11-21T02:07:59.437Z,9.2
2016-11-21T02:08:59.432Z,9.2
2016-11-21T02:09:59.420Z,9.21
2016-11-21T02:10:59.415Z,9.15
2016-11-21T02:11:59.405Z,9.26
2016-11-21T02:12:59.396Z,9.26
2016-11-21T02:13:59.381Z,9.18
2016-11-21T02:14:59.374Z,9.15
2016-11-21T02:15:59.365Z,9.21
2016-11-21T02:16:59.360Z,9.2
2016-11-21T02:17:59.384Z,9.29
2016-11-21T02:18:59.344Z,9.18
2016-11-21T02:19:59.330Z,9.15
2016-11-21T02:20:59.326Z,9.15
2016-11-21T02:21:59.312Z,9.17
2016-11-21T02:22:59.304Z,9.15
2016-11-21T02:23:59.289Z,9.11
2016-11-21T02:24:59.288Z,9.21
2016-11-21T02:25:59.272Z,9.21
2016-11-21T02:26:59.270Z,9.15
2016-11-21T02:27:59.258Z,9.14
2016-11-21T02:28:59.254Z,9.14
2016-11-21T02:29:59.245Z,9.02
2016-11-21T02:30:59.229Z,9.1
2016-11-21T02:31:59.220Z,9.02
2016-11-21T02:32:59.214Z,9.08
2016-11-21T02:33:59.203Z,9.08
2016-11-21T02:34:59.196Z,9.05
2016-11-21T02:35:59.185Z,8.99
2016-11-21T02:36:59.181Z,8.96
2016-11-21T02:37:59.164Z,9.01
2016-11-21T02:38:59.162Z,8.96
2016-11-21T02:39:59.151Z,8.94
2016-11-21T02:40:59.133Z,8.98
2016-11-21T02:41:59.133Z,8.96
2016-11-21T02:42:59.122Z,8.87
2016-11-21T02:43:59.119Z,8.95
2016-11-21T02:44:59.098Z,8.89
2016-11-21T02:45:59.091Z,8.87
2016-11-21T02:46:59.087Z,8.89
2016-11-21T02:47:59.083Z,8.89
2016-11-21T02:48:59.060Z,8.83
2016-11-21T02:49:59.052Z,8.87
2016-11-21T02:50:59.057Z,8.87
2016-11-21T02:51:59.044Z,8.79
2016-11-21T02:52:59.034Z,8.79
2016-11-21T02:53:59.025Z,8.77
2016-11-21T02:54:59.012Z,8.77
2016-11-21T02:55:59.002Z,8.77
2016-11-21T02:56:58.999Z,8.79
2016-11-21T02:57:58.983Z,8.84
2016-11-21T02:58:58.974Z,8.77
2016-11-21T02:59:58.965Z,8.74
2016-11-21T03:00:58.958Z,8.7
2016-11-21T03:01:58.946Z,8.79
2016-11-21T03:02:58.941Z,8.74
2016-11-21T03:03:58.925Z,8.74
2016-11-21T03:04:58.915Z,8.73
2016-11-21T03:05:58.914Z,8.74
2016-11-21T03:06:58.899Z,8.7
2016-11-21T03:07:58.890Z,8.71
2016-11-21T03:08:58.879Z,8.66
2016-11-21T03:09:58.877Z,8.66
2016-11-21T03:10:58.863Z,8.58
2016-11-21T03:11:58.855Z,8.58
2016-11-21T03:12:58.849Z,8.61
2016-11-21T03:13:58.830Z,8.59
2016-11-21T03:14:58.826Z,8.59
2016-11-21T03:15:58.817Z,8.55
2016-11-21T03:16:58.808Z,8.47
2016-11-21T03:17:58.798Z,8.48
2016-11-21T03:18:58.789Z,8.56
2016-11-21T03:19:58.773Z,8.48
2016-11-21T03:20:58.766Z,8.43
2016-11-21T03:21:58.756Z,8.45
2016-11-21T03:22:58.753Z,8.4
2016-11-21T03:23:58.745Z,8.43
2016-11-21T03:24:58.729Z,8.38
2016-11-21T03:25:58.720Z,8.34
2016-11-21T03:26:58.708Z,8.34
2016-11-21T03:27:58.700Z,8.33
2016-11-21T03:28:58.697Z,8.29
2016-11-21T03:29:58.683Z,8.29
2016-11-21T03:30:58.673Z,8.34
2016-11-21T03:31:58.663Z,8.26
2016-11-21T03:32:58.656Z,8.23
2016-11-21T03:33:58.645Z,8.23
2016-11-21T03:34:58.637Z,8.19
2016-11-21T03:35:58.623Z,8.18
2016-11-21T03:36:58.614Z,8.15
2016-11-21T03:37:58.609Z,8.1
2016-11-21T03:38:58.595Z,8.12
2016-11-21T03:39:58.586Z,8.12
2016-11-21T03:40:58.575Z,8.19
2016-11-21T03:41:58.567Z,8.23
2016-11-21T03:42:58.555Z,8.02
2016-11-21T03:43:58.549Z,8.08
2016-11-21T03:44:58.536Z,8.12
2016-11-21T03:45:58.531Z,8.15
2016-11-21T03:46:58.519Z,8.04
2016-11-21T03:47:58.512Z,8.07
2016-11-21T03:48:58.495Z,8.05
2016-11-21T03:49:58.493Z,8.02
2016-11-21T03:50:58.479Z,8.02
2016-11-21T03:51:58.475Z,7.97
2016-11-21T03:52:58.462Z,8
2016-11-21T03:53:58.452Z,7.95
2016-11-21T03:54:58.445Z,7.9
2016-11-21T03:55:58.461Z,7.79
2016-11-21T03:56:58.423Z,7.85
2016-11-21T03:57:58.409Z,7.89
2016-11-21T03:58:58.398Z,7.8
2016-11-21T03:59:58.393Z,7.82
2016-11-21T04:00:58.381Z,7.87
2016-11-21T04:01:58.369Z,7.89
2016-11-21T04:02:58.364Z,7.79
2016-11-21T04:03:58.359Z,7.87
2016-11-21T04:04:58.341Z,7.85
2016-11-21T04:05:58.335Z,7.83
2016-11-21T04:06:58.324Z,7.83
2016-11-21T04:07:58.315Z,7.85
2016-11-21T04:08:58.301Z,7.83
2016-11-21T04:09:58.289Z,7.87
2016-11-21T04:10:58.283Z,7.83
2016-11-21T04:11:58.273Z,7.86
2016-11-21T04:12:58.263Z,7.87
2016-11-21T04:13:58.252Z,7.87
2016-11-21T04:14:58.246Z,7.85
2016-11-21T04:15:58.232Z,7.92
2016-11-21T04:16:58.224Z,7.86
2016-11-21T04:17:58.217Z,7.83
2016-11-21T04:18:58.201Z,7.77
2016-11-21T04:19:58.196Z,7.82
2016-11-21T04:20:58.489Z,7.72
2016-11-21T04:21:58.174Z,7.8
2016-11-21T04:22:58.164Z,7.68
2016-11-21T04:23:58.154Z,7.61
2016-11-21T04:24:58.141Z,7.6
2016-11-21T04:25:58.134Z,7.69
2016-11-21T04:26:58.121Z,7.67
2016-11-21T04:27:58.139Z,7.52
2016-11-21T04:28:58.129Z,7.6
2016-11-21T04:29:58.091Z,7.57
2016-11-21T04:30:58.088Z,7.48
2016-11-21T04:31:58.073Z,7.55
2016-11-21T04:32:58.068Z,7.52
2016-11-21T04:33:58.053Z,7.61
2016-11-21T04:34:58.070Z,7.4
2016-11-21T04:35:58.034Z,7.49
2016-11-21T04:36:58.027Z,7.45
2016-11-21T04:37:58.010Z,7.6
2016-11-21T04:38:58.003Z,7.43
2016-11-21T04:39:57.990Z,7.48
2016-11-21T04:40:57.983Z,7.53
2016-11-21T04:41:57.981Z,7.4
2016-11-21T04:42:57.962Z,7.42
2016-11-21T04:43:57.952Z,7.48
2016-11-21T04:44:57.941Z,7.43
2016-11-21T04:45:57.929Z,7.57
2016-11-21T04:46:57.924Z,7.52
2016-11-21T04:47:57.907Z,7.39
2016-11-21T04:48:57.904Z,7.45
2016-11-21T04:49:57.891Z,7.42
2016-11-21T04:50:57.890Z,7.55
2016-11-21T04:51:57.866Z,7.53
2016-11-21T04:52:57.862Z,7.46
2016-11-21T04:53:57.846Z,7.48
2016-11-21T04:54:57.837Z,7.55
2016-11-21T04:55:57.827Z,7.57
2016-11-21T04:56:57.813Z,7.49
2016-11-21T04:57:57.806Z,7.5
2016-11-21T04:58:57.796Z,7.4
2016-11-21T04:59:57.786Z,7.5
2016-11-21T05:00:57.777Z,7.5
2016-11-21T05:01:57.774Z,7.49
2016-11-21T05:02:57.751Z,7.49
2016-11-21T05:03:57.748Z,7.55
2016-11-21T05:04:57.733Z,7.52
2016-11-21T05:05:57.728Z,7.55
2016-11-21T05:06:57.717Z,7.57
2016-11-21T05:07:57.708Z,7.6
2016-11-21T05:08:57.696Z,7.55
2016-11-21T05:09:57.686Z,7.63
2016-11-21T05:10:57.673Z,7.57
2016-11-21T05:11:57.667Z,7.49
2016-11-21T05:12:57.650Z,7.48
2016-11-21T05:13:57.642Z,7.52
2016-11-21T05:14:57.631Z,7.43
2016-11-21T05:15:57.627Z,7.58
2016-11-21T05:16:57.609Z,7.45
2016-11-21T05:17:57.608Z,7.53
2016-11-21T05:18:57.589Z,7.52
2016-11-21T05:19:57.584Z,7.49
2016-11-21T05:20:57.575Z,7.43
2016-11-21T05:21:57.562Z,7.42
2016-11-21T05:22:57.551Z,7.57
2016-11-21T05:23:57.551Z,7.49
2016-11-21T05:24:57.527Z,7.55
2016-11-21T05:25:57.527Z,7.46
2016-11-21T05:26:57.508Z,7.42
2016-11-21T05:27:57.497Z,7.4
2016-11-21T05:28:57.487Z,7.39
2016-11-21T05:29:57.475Z,7.52
2016-11-21T05:30:57.465Z,7.42
2016-11-21T05:31:57.457Z,7.42
2016-11-21T05:32:57.448Z,7.4
2016-11-21T05:33:57.432Z,7.4
2016-11-21T05:34:57.426Z,7.43
2016-11-21T05:35:57.414Z,7.42
2016-11-21T05:36:57.402Z,7.42
2016-11-21T05:37:57.394Z,7.39
2016-11-21T05:38:57.385Z,7.25
2016-11-21T05:39:57.377Z,7.34
2016-11-21T05:40:57.365Z,7.27
2016-11-21T05:41:57.351Z,7.31
2016-11-21T05:42:57.344Z,7.27
2016-11-21T05:43:57.365Z,7.27
2016-11-21T05:44:57.322Z,7.25
2016-11-21T05:45:57.313Z,7.15
2016-11-21T05:46:57.303Z,7.17
2016-11-21T05:47:57.300Z,7.09
2016-11-21T05:48:57.278Z,7.07
2016-11-21T05:49:57.274Z,7.07
2016-11-21T05:50:57.264Z,7.17
2016-11-21T05:51:57.249Z,7.09
2016-11-21T05:52:57.242Z,7.02
2016-11-21T05:53:57.226Z,6.99
2016-11-21T05:54:57.226Z,6.98
2016-11-21T05:55:57.206Z,7.03
2016-11-21T05:56:57.195Z,6.95
2016-11-21T05:57:57.185Z,6.98
2016-11-21T05:58:57.171Z,7.03
2016-11-21T05:59:57.166Z,7.03
2016-11-21T06:00:57.153Z,6.95
2016-11-21T06:01:57.141Z,6.94
2016-11-21T06:02:57.133Z,6.95
2016-11-21T06:03:57.125Z,6.87
2016-11-21T06:04:57.114Z,6.88
2016-11-21T06:05:57.106Z,6.84
2016-11-21T06:06:57.090Z,6.84
2016-11-21T06:07:57.085Z,6.88
2016-11-21T06:08:57.068Z,6.87
2016-11-21T06:09:57.061Z,6.88
2016-11-21T06:10:57.053Z,6.8
2016-11-21T06:11:57.038Z,6.81
2016-11-21T06:12:57.027Z,6.76
2016-11-21T06:13:57.019Z,6.73
2016-11-21T06:14:57.006Z,6.76
2016-11-21T06:15:56.993Z,6.85
2016-11-21T06:16:56.986Z,6.87
2016-11-21T06:17:56.979Z,6.79
2016-11-21T06:18:57.272Z,6.8
2016-11-21T06:19:56.960Z,6.77
2016-11-21T06:20:56.944Z,6.81
2016-11-21T06:21:56.934Z,6.69
2016-11-21T06:22:56.924Z,6.67
2016-11-21T06:23:57.221Z,6.64
2016-11-21T06:24:56.901Z,6.73
2016-11-21T06:25:56.893Z,6.74
2016-11-21T06:26:56.876Z,6.7
2016-11-21T06:27:56.870Z,6.71
2016-11-21T06:28:56.856Z,6.77
2016-11-21T06:29:56.845Z,6.73
2016-11-21T06:30:56.836Z,6.71
2016-11-21T06:31:56.830Z,6.79
2016-11-21T06:32:56.817Z,6.69
2016-11-21T06:33:56.807Z,6.73
2016-11-21T06:34:56.794Z,6.66
2016-11-21T06:35:56.786Z,6.71
2016-11-21T06:36:56.770Z,6.74
2016-11-21T06:37:56.766Z,6.77
2016-11-21T06:38:57.065Z,6.79
2016-11-21T06:39:56.740Z,6.76
2016-11-21T06:40:56.732Z,6.84
2016-11-21T06:41:56.720Z,6.8
2016-11-21T06:42:56.712Z,6.8
2016-11-21T06:43:56.694Z,6.8
2016-11-21T06:44:56.686Z,6.77
2016-11-21T06:45:56.680Z,6.87
2016-11-21T06:46:56.666Z,6.88
2016-11-21T06:47:56.650Z,6.84
2016-11-21T06:48:56.643Z,6.85
2016-11-21T06:49:56.639Z,6.8
2016-11-21T06:50:56.622Z,6.95
2016-11-21T06:51:56.611Z,6.99
2016-11-21T06:52:56.602Z,6.95
2016-11-21T06:53:56.596Z,6.91
2016-11-21T06:54:56.580Z,6.98
2016-11-21T06:55:56.582Z,7.09
2016-11-21T06:56:56.561Z,7.13
2016-11-21T06:57:56.549Z,7.12
2016-11-21T06:58:56.539Z,7.06
2016-11-21T06:59:56.530Z,7.15
2016-11-21T07:00:56.519Z,7.15
2016-11-21T07:01:56.509Z,7.1
2016-11-21T07:02:56.501Z,7.16
2016-11-21T07:03:56.479Z,7.31
2016-11-21T07:04:56.472Z,7.25
2016-11-21T07:05:56.770Z,7.27
2016-11-21T07:06:56.451Z,7.31
2016-11-21T07:07:56.440Z,7.3
2016-11-21T07:08:56.433Z,7.4
2016-11-21T07:09:56.449Z,7.43
2016-11-21T07:10:56.415Z,7.39
2016-11-21T07:11:56.405Z,7.5
2016-11-21T07:12:56.416Z,7.52
2016-11-21T07:13:56.383Z,7.63
2016-11-21T07:14:56.376Z,7.6
2016-11-21T07:15:56.363Z,7.6
2016-11-21T07:16:56.353Z,7.58
2016-11-21T07:17:56.341Z,7.57
2016-11-21T07:18:56.335Z,7.67
2016-11-21T07:19:56.632Z,7.74
2016-11-21T07:20:56.321Z,7.77
2016-11-21T07:21:56.298Z,7.82
2016-11-21T07:22:56.295Z,7.8
2016-11-21T07:23:56.301Z,7.89
2016-11-21T07:24:56.283Z,7.95
2016-11-21T07:25:56.261Z,7.95
2016-11-21T07:26:56.253Z,8.02
2016-11-21T07:27:56.247Z,8.01
2016-11-21T07:28:56.233Z,8.16
2016-11-21T07:29:56.227Z,8.22
2016-11-21T07:30:56.221Z,8.26
2016-11-21T07:31:56.207Z,8.25
2016-11-21T07:32:56.199Z,8.38
2016-11-21T07:33:56.188Z,8.4
2016-11-21T07:34:56.172Z,8.44
2016-11-21T07:35:56.172Z,8.44
2016-11-21T07:36:56.162Z,8.53
2016-11-21T07:37:56.145Z,8.5
2016-11-21T07:38:56.444Z,8.59
2016-11-21T07:39:56.132Z,8.61
2016-11-21T07:40:56.128Z,8.66
2016-11-21T07:41:56.108Z,8.79
2016-11-21T07:42:56.106Z,8.71
2016-11-21T07:43:56.088Z,8.81
2016-11-21T07:44:56.086Z,8.81
2016-11-21T07:45:56.068Z,8.84
2016-11-21T07:46:56.069Z,8.91
2016-11-21T07:47:56.057Z,8.99
2016-11-21T07:48:56.049Z,9.04
2016-11-21T07:49:56.043Z,8.98
2016-11-21T07:50:56.030Z,9.17
2016-11-21T07:51:56.017Z,9.17
2016-11-21T07:52:56.007Z,9.18
2016-11-21T07:53:56.004Z,9.26
2016-11-21T07:54:55.995Z,9.33
2016-11-21T07:55:56.290Z,9.35
2016-11-21T07:56:55.977Z,9.4
2016-11-21T07:57:55.968Z,9.47
2016-11-21T07:58:55.954Z,9.48
2016-11-21T07:59:55.953Z,9.56
2016-11-21T08:00:55.948Z,9.69
2016-11-21T08:01:55.930Z,9.69
2016-11-21T08:02:55.929Z,9.81
2016-11-21T08:03:55.919Z,9.78
2016-11-21T08:04:55.907Z,9.87
2016-11-21T08:05:55.904Z,10.01
2016-11-21T08:06:55.890Z,9.9
2016-11-21T08:08:21.549Z,10.11
2016-11-21T08:08:55.868Z,10.11
2016-11-21T08:09:56.165Z,10.11
2016-11-21T08:10:55.850Z,10.25
2016-11-21T08:11:55.839Z,10.2
2016-11-21T08:12:55.832Z,10.26
2016-11-21T08:13:55.829Z,10.33
2016-11-21T08:14:55.812Z,10.29
2016-11-21T08:15:55.805Z,10.33
2016-11-21T08:16:55.791Z,10.44
2016-11-21T08:17:55.806Z,10.45
2016-11-21T08:18:56.078Z,10.48
2016-11-21T08:19:55.764Z,10.51
2016-11-21T08:20:55.760Z,10.6
2016-11-21T08:21:55.752Z,10.59
2016-11-21T08:22:55.741Z,10.51
2016-11-21T08:23:55.739Z,10.61
2016-11-21T08:24:55.726Z,10.61
2016-11-21T08:25:55.717Z,10.6
2016-11-21T08:26:55.715Z,10.71
2016-11-21T08:27:55.706Z,10.67
2016-11-21T08:28:55.696Z,10.76
2016-11-21T08:29:55.695Z,10.78
2016-11-21T08:30:55.685Z,10.78
2016-11-21T08:31:55.677Z,10.73
2016-11-21T08:32:55.672Z,10.82
2016-11-21T08:33:55.666Z,10.85
2016-11-21T08:34:55.646Z,10.89
2016-11-21T08:35:55.651Z,10.86
2016-11-21T08:36:55.941Z,10.88
2016-11-21T08:37:55.638Z,10.89
2016-11-21T08:38:55.629Z,10.89
2016-11-21T08:39:55.639Z,10.99
2016-11-21T08:40:55.613Z,10.96
2016-11-21T08:41:55.599Z,11.1
2016-11-21T08:42:55.600Z,11.07
2016-11-21T08:43:55.612Z,11.15
2016-11-21T08:44:55.582Z,11.09
2016-11-21T08:45:55.576Z,11.18
2016-11-21T08:46:55.571Z,11.25
2016-11-21T08:47:55.558Z,11.27
2016-11-21T08:48:55.557Z,11.28
2016-11-21T08:49:55.544Z,11.25
2016-11-21T08:50:55.543Z,11.37
2016-11-21T08:51:55.522Z,11.46
2016-11-21T08:52:55.540Z,11.44
2016-11-21T08:53:55.517Z,11.46
2016-11-21T08:54:55.512Z,11.54
2016-11-21T08:55:55.504Z,11.49
2016-11-21T08:56:55.500Z,11.55
2016-11-21T08:57:55.485Z,11.61
2016-11-21T08:58:55.486Z,11.67
2016-11-21T08:59:55.479Z,11.65
2016-11-21T09:00:55.474Z,11.78
2016-11-21T09:01:55.464Z,11.79
2016-11-21T09:02:55.461Z,11.85
2016-11-21T09:03:55.449Z,11.82
2016-11-21T09:04:55.438Z,11.8
2016-11-21T09:05:55.437Z,11.9
2016-11-21T09:06:55.431Z,11.9
2016-11-21T09:07:55.730Z,11.88
2016-11-21T09:08:55.422Z,11.95
2016-11-21T09:09:55.416Z,11.79
2016-11-21T09:10:55.703Z,11.83
2016-11-21T09:11:55.390Z,11.95
2016-11-21T09:12:55.400Z,11.95
2016-11-21T09:13:55.383Z,12.01
2016-11-21T09:14:55.380Z,11.95
2016-11-21T09:15:55.370Z,11.96
2016-11-21T09:16:55.364Z,12.1
2016-11-21T09:17:55.352Z,12.04
2016-11-21T09:18:55.351Z,12.05
2016-11-21T09:19:55.343Z,12.02
2016-11-21T09:20:55.339Z,12.01
2016-11-21T09:21:55.336Z,12.05
2016-11-21T09:22:55.319Z,12.09
2016-11-21T09:23:55.318Z,12.05
2016-11-21T09:24:55.323Z,12.17
2016-11-21T09:25:55.308Z,12.1
2016-11-21T09:26:55.305Z,12.13
2016-11-21T09:27:55.296Z,12.13
2016-11-21T09:28:55.285Z,12.12
2016-11-21T09:29:55.284Z,12.17
2016-11-21T09:30:55.278Z,12.1
2016-11-21T09:31:55.272Z,12.14
2016-11-21T09:32:55.265Z,12.16
2016-11-21T09:33:55.254Z,12.2
2016-11-21T09:34:55.246Z,12.23
2016-11-21T09:35:55.244Z,12.24
2016-11-21T09:36:55.237Z,12.27
2016-11-21T09:37:55.232Z,12.32
2016-11-21T09:38:55.220Z,12.34
2016-11-21T09:39:55.216Z,12.34
2016-11-21T09:40:55.210Z,12.39
2016-11-21T09:41:55.208Z,12.46
2016-11-21T09:42:55.200Z,12.45
2016-11-21T09:43:55.193Z,12.46
2016-11-21T09:44:55.186Z,12.47
2016-11-21T09:45:55.180Z,12.49
2016-11-21T09:46:55.203Z,12.57
2016-11-21T09:47:55.169Z,12.7
2016-11-21T09:48:55.161Z,12.62
2016-11-21T09:49:55.158Z,12.65
2016-11-21T09:50:55.155Z,12.7
2016-11-21T09:51:55.146Z,12.68
2016-11-21T09:52:55.134Z,12.72
2016-11-21T09:53:55.136Z,12.9
2016-11-21T09:54:55.125Z,12.85
2016-11-21T09:55:55.118Z,12.83
2016-11-21T09:56:55.116Z,12.87
2016-11-21T09:57:55.113Z,12.95
2016-11-21T09:58:55.408Z,13.03
2016-11-21T09:59:55.101Z,13.01
2016-11-21T10:00:55.091Z,13.03
2016-11-21T10:01:55.086Z,13.15
2016-11-21T10:02:55.086Z,13.14
2016-11-21T10:03:55.080Z,13.15
2016-11-21T10:04:55.072Z,13.15
2016-11-21T10:05:55.073Z,13.25
2016-11-21T10:06:55.060Z,13.28
2016-11-21T10:07:55.052Z,13.22
2016-11-21T10:08:55.055Z,13.33
2016-11-21T10:09:55.045Z,13.39
2016-11-21T10:10:55.044Z,13.44
2016-11-21T10:11:55.032Z,13.38
2016-11-21T10:12:55.035Z,13.39
2016-11-21T10:13:55.317Z,13.45
2016-11-21T10:14:55.023Z,13.42
2016-11-21T10:15:55.017Z,13.3
2016-11-21T10:16:55.007Z,13.32
2016-11-21T10:17:55.003Z,13.28
2016-11-21T10:18:54.999Z,13.29
2016-11-21T10:19:54.996Z,13.26
2016-11-21T10:20:54.986Z,13.23
2016-11-21T10:21:54.979Z,13.25
2016-11-21T10:22:54.978Z,13.15
2016-11-21T10:23:54.970Z,13.19
2016-11-21T10:24:54.967Z,13.25
2016-11-21T10:25:54.958Z,13.19
2016-11-21T10:26:54.950Z,13.19
2016-11-21T10:27:54.945Z,13.22
2016-11-21T10:28:54.946Z,13.19
2016-11-21T10:30:14.151Z,13.23
2016-11-21T10:30:54.943Z,13.15
2016-11-21T10:31:54.938Z,13.17
2016-11-21T10:32:54.931Z,13.15
2016-11-21T10:33:54.923Z,13.11
2016-11-21T10:34:54.932Z,13.11
2016-11-21T10:35:55.231Z,13.12
2016-11-21T10:36:54.920Z,13.1
2016-11-21T10:37:54.945Z,13.04
2016-11-21T10:38:54.910Z,13.08
2016-11-21T10:39:54.903Z,12.97
2016-11-21T10:40:54.904Z,13.03
2016-11-21T10:41:54.896Z,13
2016-11-21T10:42:54.885Z,13
2016-11-21T10:43:54.883Z,12.93
2016-11-21T10:44:54.873Z,12.87
2016-11-21T10:45:54.877Z,13.03
2016-11-21T10:46:54.867Z,13
2016-11-21T10:47:54.858Z,13.04
2016-11-21T10:48:54.854Z,13
2016-11-21T10:49:54.846Z,13.04
2016-11-21T10:50:55.149Z,13.03
2016-11-21T10:51:54.840Z,12.96
2016-11-21T10:52:54.839Z,12.97
2016-11-21T10:53:54.823Z,12.95
2016-11-21T10:54:54.825Z,13
2016-11-21T10:55:54.812Z,12.82
2016-11-21T10:56:54.812Z,12.86
2016-11-21T10:57:54.800Z,12.85
2016-11-21T10:58:54.795Z,12.82
2016-11-21T10:59:54.791Z,12.89
2016-11-21T11:00:54.785Z,12.96
2016-11-21T11:01:54.779Z,12.95
2016-11-21T11:02:54.774Z,13
2016-11-21T11:03:54.769Z,13
2016-11-21T11:04:54.762Z,13.03
2016-11-21T11:05:54.758Z,12.92
2016-11-21T11:06:54.751Z,12.97
2016-11-21T11:07:54.774Z,13
2016-11-21T11:08:54.738Z,13.03
2016-11-21T11:09:54.732Z,13.03
2016-11-21T11:10:54.728Z,13.01
2016-11-21T11:11:54.723Z,12.97
2016-11-21T11:12:54.717Z,13.04
2016-11-21T11:13:54.705Z,13.04
2016-11-21T11:14:54.700Z,13
2016-11-21T11:15:54.699Z,13.01
2016-11-21T11:16:54.690Z,13.01
2016-11-21T11:17:54.681Z,13
2016-11-21T11:18:54.678Z,13.05
2016-11-21T11:19:54.670Z,13.08
2016-11-21T11:20:54.664Z,13.04
2016-11-21T11:21:54.660Z,13.12
2016-11-21T11:22:54.657Z,13
2016-11-21T11:23:54.646Z,13.11
2016-11-21T11:24:54.655Z,13.12
2016-11-21T11:25:54.642Z,13.15
2016-11-21T11:26:54.630Z,13.17
2016-11-21T11:27:54.628Z,13.17
2016-11-21T11:28:54.620Z,13.19
2016-11-21T11:29:54.615Z,13.23
2016-11-21T11:30:54.611Z,13.2
2016-11-21T11:31:54.606Z,13.22
2016-11-21T11:32:54.594Z,13.22
2016-11-21T11:33:54.592Z,13.19
2016-11-21T11:34:54.587Z,13.22
2016-11-21T11:35:54.582Z,13.29
2016-11-21T11:37:39.399Z,13.17
2016-11-21T11:37:54.558Z,13.2
2016-11-21T11:38:54.555Z,13.22
2016-11-21T11:39:54.544Z,13.32
2016-11-21T11:40:54.548Z,13.33
2016-11-21T11:41:54.551Z,13.23
2016-11-21T11:42:54.543Z,13.23
2016-11-21T11:43:54.542Z,13.23
2016-11-21T11:44:54.549Z,13.28
2016-11-21T11:45:54.529Z,13.32
2016-11-21T11:46:54.531Z,13.39
2016-11-21T11:47:54.523Z,13.39
2016-11-21T11:48:54.508Z,13.33
2016-11-21T11:49:54.813Z,13.44
2016-11-21T11:50:54.509Z,13.38
2016-11-21T11:51:54.498Z,13.46
2016-11-21T11:52:54.490Z,13.33
2016-11-21T11:53:54.489Z,13.36
2016-11-21T11:54:54.481Z,13.33
2016-11-21T11:55:54.466Z,13.36
2016-11-21T11:56:54.465Z,13.28
2016-11-21T11:57:54.486Z,13.32
2016-11-21T11:58:54.457Z,13.29
2016-11-21T11:59:54.456Z,13.23
2016-11-21T12:00:54.445Z,13.23
2016-11-21T12:01:54.438Z,13.23
2016-11-21T12:02:54.438Z,13.25
2016-11-21T12:03:54.433Z,13.25
2016-11-21T12:04:54.420Z,13.22
2016-11-21T12:05:54.731Z,13.22
2016-11-21T12:06:54.714Z,13.17
2016-11-21T12:07:54.412Z,13.17
2016-11-21T12:08:54.402Z,13.11
2016-11-21T12:09:54.400Z,13.12
2016-11-21T12:10:54.383Z,13.1
2016-11-21T12:11:54.383Z,13.14
2016-11-21T12:12:54.680Z,12.96
2016-11-21T12:13:54.403Z,13.04
2016-11-21T12:14:54.362Z,13.05
2016-11-21T12:15:54.365Z,13.11
2016-11-21T12:16:54.359Z,13
2016-11-21T12:17:54.345Z,12.97
2016-11-21T12:18:54.344Z,13.1
2016-11-21T12:19:54.337Z,13.1
2016-11-21T12:20:54.642Z,13.11
2016-11-21T12:21:54.327Z,13.14
2016-11-21T12:22:54.319Z,13.11
2016-11-21T12:23:54.316Z,13.15
2016-11-21T12:24:54.308Z,13.15
2016-11-21T12:25:54.298Z,13.23
2016-11-21T12:26:54.292Z,13.23
2016-11-21T12:27:54.289Z,13.22
2016-11-21T12:28:54.287Z,13.29
2016-11-21T12:29:54.280Z,13.3
2016-11-21T12:30:54.585Z,13.38
2016-11-21T12:31:54.261Z,13.41
2016-11-21T12:32:54.291Z,13.41
2016-11-21T12:33:54.255Z,13.36
2016-11-21T12:34:54.253Z,13.44
2016-11-21T12:35:54.237Z,13.44
2016-11-21T12:36:54.264Z,13.41
2016-11-21T12:37:54.230Z,13.45
2016-11-21T12:38:54.244Z,13.42
2016-11-21T12:39:54.221Z,13.42
2016-11-21T12:40:54.214Z,13.42
2016-11-21T12:41:54.243Z,13.42
2016-11-21T12:42:54.209Z,13.38
2016-11-21T12:43:54.194Z,13.44
2016-11-21T12:44:54.198Z,13.41
2016-11-21T12:45:54.185Z,13.3
2016-11-21T12:46:54.184Z,13.25
2016-11-21T12:47:54.490Z,13.19
2016-11-21T12:48:54.171Z,13.26
2016-11-21T12:49:54.195Z,13.23
2016-11-21T12:50:54.157Z,13.25
2016-11-21T12:51:54.156Z,13.19
2016-11-21T12:52:54.149Z,13.22
2016-11-21T12:53:54.146Z,13.19
2016-11-21T12:54:54.136Z,13.25
2016-11-21T12:55:54.135Z,13.19
2016-11-21T12:56:54.129Z,13.25
2016-11-21T12:57:54.117Z,13.2
2016-11-21T12:58:54.114Z,13.14
2016-11-21T12:59:54.113Z,13.19
2016-11-21T13:00:54.098Z,13.26
2016-11-21T13:01:54.100Z,13.19
2016-11-21T13:02:54.086Z,13.22
2016-11-21T13:03:54.085Z,13.22
2016-11-21T13:04:54.082Z,13.23
2016-11-21T13:05:54.075Z,13.26
2016-11-21T13:06:54.070Z,13.17
2016-11-21T13:07:54.066Z,13.2
2016-11-21T13:08:54.056Z,13.22
2016-11-21T13:09:54.068Z,13.15
2016-11-21T13:10:54.042Z,13.12
2016-11-21T13:11:54.038Z,13.19